Time;durP1;ratioP1;P1;durP2;ratioP2;P2;SDS_P1;SDS_P2;PMS_P1;PMS_P2;Temp;Humidity;BMP_temperature;BMP_pressure;BME280_temperature;BME280_humidity;BME280_pressure;Samples;Min_cycle;Max_cycle;Signal;HPM_P1;HPM_P2
2022/01/11 00:01:43;;;;;;;12.18;6.50;;;;;;;28.88;52.47;101298.03;5084707;27;66339;-37
2022/01/11 00:04:16;;;;;;;18.95;7.70;;;;;;;28.96;54.02;101306.81;5090763;27;70350;-36
2022/01/11 00:06:49;;;;;;;24.70;9.27;;;;;;;29.04;55.04;101318.56;5083233;27;65432;-37
2022/01/11 00:09:29;;;;;;;29.25;10.35;;;;;;;29.09;55.39;101318.81;5084485;27;70175;-37
2022/01/11 00:12:00;;;;;;;24.35;10.35;;;;;;;29.15;56.35;101320.72;5090077;27;65406;-38
2022/01/11 00:14:30;;;;;;;25.90;10.27;;;;;;;29.17;56.32;101329.44;5091801;27;69788;-36
2022/01/11 00:17:01;;;;;;;46.97;10.98;;;;;;;29.24;57.04;101327.59;5080613;27;65473;-38
2022/01/11 00:19:33;;;;;;;41.58;11.02;;;;;;;29.13;57.64;101311.94;5085620;27;69571;-37
2022/01/11 00:22:07;;;;;;;73.97;12.00;;;;;;;29.32;58.32;101342.84;5088828;27;65762;-39
2022/01/11 00:24:38;;;;;;;46.13;14.98;;;;;;;29.36;59.11;101355.75;5083965;27;69329;-37
2022/01/11 00:27:10;;;;;;;52.95;16.17;;;;;;;29.33;59.62;101356.13;5083464;27;66567;-39
2022/01/11 00:29:43;;;;;;;53.28;16.60;;;;;;;29.27;59.57;101351.53;5080333;27;69842;-37
2022/01/11 00:32:32;;;;;;;53.83;14.90;;;;;;;29.34;60.08;101363.22;5085279;27;66272;-37
2022/01/11 00:35:04;;;;;;;58.55;15.63;;;;;;;29.39;60.00;101368.88;5083642;27;69620;-38
2022/01/11 00:37:34;;;;;;;31.40;12.30;;;;;;;29.40;59.89;101378.63;5092909;27;65667;-37
2022/01/11 00:40:08;;;;;;;29.27;11.93;;;;;;;29.40;59.75;101378.63;5092088;27;69898;-37
2022/01/11 00:42:38;;;;;;;32.92;13.02;;;;;;;29.46;59.96;101381.59;5093443;27;65284;-39
2022/01/11 00:45:11;;;;;;;22.80;10.38;;;;;;;29.28;59.44;101347.81;5092234;27;70156;-36
2022/01/11 00:47:41;;;;;;;23.10;11.50;;;;;;;29.49;59.75;101386.59;5082475;27;65325;-38
2022/01/11 00:50:12;;;;;;;24.05;10.52;;;;;;;29.54;58.76;101389.53;5084473;27;69648;-38
2022/01/11 00:52:42;;;;;;;24.08;9.77;;;;;;;29.57;58.89;101397.25;5086519;27;66129;-38
2022/01/11 00:55:13;;;;;;;16.90;8.93;;;;;;;29.54;58.60;101394.94;5083350;27;70181;-38
2022/01/11 00:57:43;;;;;;;19.55;9.57;;;;;;;29.61;58.81;101403.91;5081082;27;65848;-39
2022/01/11 01:00:14;;;;;;;19.58;9.48;;;;;;;29.62;58.21;101408.31;5086529;27;70454;-38
2022/01/11 01:02:44;;;;;;;25.70;9.55;;;;;;;29.64;58.31;101406.25;5078638;27;66760;-38
2022/01/11 01:05:17;;;;;;;11.82;9.23;;;;;;;29.65;58.22;101402.53;5089239;27;70578;-39
2022/01/11 01:07:51;;;;;;;13.60;8.75;;;;;;;29.68;58.01;101407.53;5087658;27;66315;-38
2022/01/11 01:10:26;;;;;;;;;;;;;;;29.37;59.66;101411.47;5087355;27;69592;-38
2022/01/11 01:12:59;;;;;;;13.52;8.52;;;;;;;29.68;57.87;101410.22;5083600;27;65566;-38
2022/01/11 01:15:29;;;;;;;15.18;9.32;;;;;;;29.68;58.32;101415.66;5077435;27;70341;-38
2022/01/11 01:18:06;;;;;;;13.95;8.52;;;;;;;29.74;58.12;101416.72;5065949;27;66083;-38
2022/01/11 01:20:36;;;;;;;14.25;8.43;;;;;;;29.73;57.88;101413.19;5084515;27;69989;-38
2022/01/11 01:23:07;;;;;;;20.05;9.10;;;;;;;29.75;57.78;101419.19;5075843;27;66195;-37
2022/01/11 01:25:37;;;;;;;17.27;8.68;;;;;;;29.74;57.62;101411.31;5087495;27;69293;-37
2022/01/11 01:28:07;;;;;;;12.48;8.68;;;;;;;29.78;57.75;101421.53;5084225;27;66250;-37
2022/01/11 01:30:38;;;;;;;15.10;8.57;;;;;;;29.79;57.32;101428.59;5082379;27;70032;-38
2022/01/11 01:33:08;;;;;;;12.82;8.43;;;;;;;29.79;57.77;101425.91;5085469;27;66332;-38
2022/01/11 01:35:39;;;;;;;11.00;8.52;;;;;;;29.80;57.31;101422.13;5086900;27;69281;-38
2022/01/11 01:38:12;;;;;;;17.00;8.90;;;;;;;29.80;57.43;101416.72;5089412;27;65697;-38
2022/01/11 01:40:46;;;;;;;13.35;8.10;;;;;;;29.82;57.61;101424.66;5084782;27;70398;-39
2022/01/11 01:43:17;;;;;;;11.93;7.60;;;;;;;29.81;57.34;101414.84;5089618;27;65688;-39
2022/01/11 01:45:49;;;;;;;10.18;8.05;;;;;;;29.84;57.32;101414.47;5085838;27;70135;-38
2022/01/11 01:48:20;;;;;;;9.23;7.80;;;;;;;29.85;57.28;101410.72;5086471;27;66448;-38
2022/01/11 01:50:51;;;;;;;8.55;7.60;;;;;;;29.88;56.77;101423.03;5086932;27;69720;-38
2022/01/11 01:53:22;;;;;;;11.38;8.55;;;;;;;29.88;56.86;101425.72;5085079;27;66218;-37
2022/01/11 01:55:53;;;;;;;9.35;7.53;;;;;;;29.89;57.16;101420.09;5076174;27;69182;-37
2022/01/11 01:58:25;;;;;;;7.97;7.18;;;;;;;29.92;56.95;101424.28;5093977;27;65380;-38
2022/01/11 02:01:02;;;;;;;11.95;8.43;;;;;;;29.89;56.92;101419.28;5083842;27;70494;-38
2022/01/11 02:03:39;;;;;;;12.82;7.70;;;;;;;29.73;56.37;101385.31;5085814;27;65394;-37
2022/01/11 02:06:20;;;;;;;9.98;7.30;;;;;;;29.92;56.84;101408.03;5083289;27;69875;-38
2022/01/11 02:08:52;;;;;;;12.98;8.20;;;;;;;29.96;56.91;101420.16;5086853;27;66305;-37
2022/01/11 02:11:24;;;;;;;9.73;8.07;;;;;;;29.99;56.27;101419.75;5084070;27;69767;-37
2022/01/11 02:13:55;;;;;;;11.07;8.70;;;;;;;30.01;56.46;101418.50;5083198;27;65663;-37
2022/01/11 02:16:26;;;;;;;8.82;7.93;;;;;;;30.01;56.27;101420.38;5087796;27;69192;-37
2022/01/11 02:18:58;;;;;;;12.50;7.65;;;;;;;30.04;56.24;101420.81;5071604;27;65277;-38
2022/01/11 02:21:28;;;;;;;9.48;8.10;;;;;;;30.05;56.12;101419.75;5086414;27;69201;-37
2022/01/11 02:24:00;;;;;;;9.15;8.20;;;;;;;30.07;56.23;101419.56;5085318;27;64971;-37
2022/01/11 02:26:34;;;;;;;14.88;8.73;;;;;;;30.02;56.88;101413.94;5082302;27;70471;-39
2022/01/11 02:29:05;;;;;;;7.35;6.63;;;;;;;30.09;56.10;101422.91;5080677;27;65708;-38
2022/01/11 02:31:37;;;;;;;9.40;7.57;;;;;;;30.11;56.13;101418.13;5078631;27;70550;-37
2022/01/11 02:34:10;;;;;;;7.82;6.80;;;;;;;30.10;56.09;101419.16;5083630;27;66329;-39
2022/01/11 02:37:06;;;;;;;8.38;7.55;;;;;;;30.14;55.92;101423.13;5082582;27;70198;-37
2022/01/11 02:39:43;;;;;;;9.48;8.02;;;;;;;30.12;55.96;101408.16;5084605;27;66082;-37
2022/01/11 02:42:24;;;;;;;10.48;8.07;;;;;;;30.17;56.46;101422.75;5087666;27;69205;-37
2022/01/11 02:44:55;;;;;;;8.48;7.72;;;;;;;30.04;55.79;101395.63;5086566;27;65221;-38
2022/01/11 02:47:28;;;;;;;11.23;8.35;;;;;;;30.21;56.19;101417.75;5081091;27;70221;-37
2022/01/11 02:49:59;;;;;;;11.60;8.73;;;;;;;30.21;56.08;101413.16;5085242;27;66423;-36
2022/01/11 02:52:36;;;;;;;8.75;7.57;;;;;;;30.25;56.01;101414.44;5090627;27;69912;-38
2022/01/11 02:55:10;;;;;;;10.20;7.45;;;;;;;30.27;55.50;101423.22;5084414;27;65802;-37
2022/01/11 02:57:42;;;;;;;11.05;8.13;;;;;;;30.27;56.05;101406.97;5086506;27;70073;-37
2022/01/11 03:00:22;;;;;;;9.50;7.60;;;;;;;30.11;56.08;101374.81;5089914;27;66518;-38
2022/01/11 03:02:52;;;;;;;9.98;7.95;;;;;;;30.34;55.95;101411.56;5086992;27;70331;-37
2022/01/11 03:05:26;;;;;;;8.80;7.28;;;;;;;30.36;55.43;101409.50;5087040;27;65507;-38
2022/01/11 03:08:01;;;;;;;9.30;7.53;;;;;;;30.34;55.61;101406.16;5084747;27;70270;-37
2022/01/11 03:10:34;;;;;;;10.38;7.90;;;;;;;30.41;55.83;101412.44;5083651;27;66683;-38
2022/01/11 03:13:09;;;;;;;9.73;8.77;;;;;;;30.42;55.33;101404.13;5080402;27;70445;-37
2022/01/11 03:15:41;;;;;;;10.60;7.93;;;;;;;30.45;55.33;101402.84;5087936;27;66142;-38
2022/01/11 03:18:15;;;;;;;8.32;7.38;;;;;;;30.46;55.40;101399.13;5091508;27;69941;-38
2022/01/11 03:20:52;;;;;;;9.68;7.63;;;;;;;30.30;55.48;101365.13;5087372;27;66709;-37
2022/01/11 03:23:23;;;;;;;15.00;8.57;;;;;;;30.52;55.63;101392.88;5084427;27;69942;-37
2022/01/11 03:25:55;;;;;;;13.35;8.35;;;;;;;30.52;55.53;101382.03;5079948;27;66246;-38
2022/01/11 03:28:26;;;;;;;;;;;;;;;30.27;55.70;101384.50;5083944;27;69307;-38
2022/01/11 03:30:57;;;;;;;9.80;8.30;;;;;;;30.56;54.85;101383.28;5084415;27;65238;-37
2022/01/11 03:33:33;;;;;;;13.45;8.82;;;;;;;30.59;55.48;101374.78;5084831;27;69681;-37
2022/01/11 03:36:04;;;;;;;11.93;8.63;;;;;;;30.63;55.06;101367.91;5099688;27;65984;-37
2022/01/11 03:38:36;;;;;;;10.73;8.88;;;;;;;30.60;55.37;101353.94;5089577;27;69281;-37
2022/01/11 03:41:12;;;;;;;13.68;8.93;;;;;;;30.66;55.10;101356.63;5081183;27;65569;-38
2022/01/11 03:43:43;;;;;;;11.93;9.02;;;;;;;30.57;54.88;101330.81;5081270;27;69691;-37
2022/01/11 03:46:18;;;;;;;10.10;9.07;;;;;;;30.72;55.08;101339.56;5080669;27;66818;-37
2022/01/11 03:48:49;;;;;;;12.63;9.65;;;;;;;30.71;54.93;101332.47;5080944;27;70355;-37
2022/01/11 03:51:19;;;;;;;15.02;10.10;;;;;;;30.76;54.61;101331.88;5085184;27;65760;-37
2022/01/11 03:54:07;;;;;;;13.38;10.35;;;;;;;30.72;54.57;101317.88;5078020;27;69907;-37
2022/01/11 03:56:44;;;;;;;10.73;9.30;;;;;;;30.81;54.83;101320.41;5085031;27;65733;-37
2022/01/11 03:59:23;;;;;;;11.90;9.27;;;;;;;30.63;54.48;101275.84;5088629;27;69723;-37
2022/01/11 04:01:54;;;;;;;13.43;9.45;;;;;;;30.71;54.36;101289.16;5086721;27;65608;-38
2022/01/11 04:04:26;;;;;;;13.27;10.07;;;;;;;30.88;54.93;101305.00;5084291;27;70071;-37
2022/01/11 04:07:08;;;;;;;12.27;10.48;;;;;;;30.88;54.71;101299.59;5082076;27;65519;-38
2022/01/11 04:09:46;;;;;;;11.48;10.27;;;;;;;30.88;54.42;101283.34;5079678;27;69361;-38
2022/01/11 04:12:18;;;;;;;11.35;10.25;;;;;;;30.92;54.52;101284.56;5084211;27;66153;-38
2022/01/11 04:14:49;;;;;;;10.85;9.88;;;;;;;30.94;54.27;101282.50;5094047;27;70150;-38
2022/01/11 04:17:32;;;;;;;13.48;10.73;;;;;;;30.92;54.21;101269.19;5093823;27;65735;-38
2022/01/11 04:20:03;;;;;;;11.40;10.30;;;;;;;30.97;54.15;101263.09;5095418;27;69003;-38
2022/01/11 04:22:35;;;;;;;15.60;11.13;;;;;;;30.98;54.64;101256.66;5090435;27;65326;-38
2022/01/11 04:25:06;;;;;;;11.57;10.15;;;;;;;31.00;54.25;101249.13;5081959;27;70141;-38
2022/01/11 04:27:38;;;;;;;12.23;10.93;;;;;;;31.04;54.09;101244.97;5065593;28;66220;-38
2022/01/11 04:30:09;;;;;;;12.93;10.93;;;;;;;31.02;54.14;101230.78;5093008;27;69949;-38
2022/01/11 04:32:40;;;;;;;13.43;10.63;;;;;;;31.06;54.46;101240.16;5086323;27;65409;-37
2022/01/11 04:35:16;;;;;;;13.00;10.23;;;;;;;31.09;54.63;101231.63;5084484;27;69995;-38
2022/01/11 04:37:48;;;;;;;11.55;9.98;;;;;;;31.03;54.64;101224.31;5084277;27;65864;-38
2022/01/11 04:40:19;;;;;;;11.93;10.65;;;;;;;31.13;54.54;101232.84;5084568;27;70821;-38
2022/01/11 04:42:49;;;;;;;11.82;10.63;;;;;;;31.14;54.17;101218.22;5089385;27;66403;-38
2022/01/11 04:45:19;;;;;;;12.43;11.13;;;;;;;31.16;53.99;101220.75;5088740;27;70441;-38
2022/01/11 04:47:56;;;;;;;12.35;11.05;;;;;;;31.20;54.14;101215.72;5080282;27;66854;-38
2022/01/11 04:50:29;;;;;;;12.38;11.00;;;;;;;31.21;54.25;101206.56;5090769;27;70513;-38
2022/01/11 04:53:00;;;;;;;12.05;10.80;;;;;;;31.21;53.97;101196.53;5096015;27;66655;-38
2022/01/11 04:55:34;;;;;;;12.15;11.02;;;;;;;31.19;54.09;101184.25;5088071;27;70404;-38
2022/01/11 04:58:20;;;;;;;12.15;10.93;;;;;;;31.22;54.19;101175.69;5070043;27;66135;-38
2022/01/11 05:00:51;;;;;;;12.43;11.13;;;;;;;31.25;54.15;101175.25;5086796;27;69766;-38
2022/01/11 05:03:22;;;;;;;13.48;10.88;;;;;;;31.28;54.08;101164.81;5069949;27;65198;-38
2022/01/11 05:05:58;;;;;;;16.17;10.57;;;;;;;31.27;53.85;101163.16;5085534;27;69562;-39
2022/01/11 05:08:30;;;;;;;12.10;10.95;;;;;;;31.30;54.44;101162.72;5074318;28;66825;-38
2022/01/11 05:11:01;;;;;;;11.77;10.77;;;;;;;31.33;54.00;101161.47;5091021;27;70760;-37
2022/01/11 05:13:31;;;;;;;13.20;11.15;;;;;;;31.36;54.17;101150.22;5093890;27;66953;-39
2022/01/11 05:16:05;;;;;;;16.55;11.75;;;;;;;31.36;54.07;101151.03;5091168;27;69409;-38
2022/01/11 05:18:39;;;;;;;13.90;11.55;;;;;;;31.39;53.87;101139.75;5090315;27;66637;-39
2022/01/11 05:21:10;;;;;;;19.75;12.23;;;;;;;31.39;54.10;101133.50;5086765;27;69295;-38
2022/01/11 05:23:41;;;;;;;12.30;11.13;;;;;;;31.38;53.87;101137.28;5085555;27;67147;-38
2022/01/11 05:26:14;;;;;;;13.88;11.23;;;;;;;31.41;54.07;101120.56;5086710;27;70544;-38
2022/01/11 05:28:54;;;;;;;12.20;10.95;;;;;;;31.44;53.36;101117.41;5079585;27;65714;-38
2022/01/11 05:31:29;;;;;;;12.50;11.20;;;;;;;31.40;53.72;101113.50;5088769;27;70303;-38
2022/01/11 05:34:00;;;;;;;14.52;11.73;;;;;;;31.44;53.79;101103.88;5086897;27;66014;-39
2022/01/11 05:36:31;;;;;;;17.15;11.82;;;;;;;31.45;53.88;101094.66;5089639;27;69900;-39
2022/01/11 05:39:03;;;;;;;13.23;11.82;;;;;;;31.48;53.63;101091.56;5085622;27;66285;-39
2022/01/11 05:41:48;;;;;;;12.90;11.52;;;;;;;31.50;53.79;101078.59;5098843;27;69880;-39
2022/01/11 05:44:22;;;;;;;12.48;11.15;;;;;;;31.51;53.18;101077.56;5083703;27;66566;-38
2022/01/11 05:46:53;;;;;;;12.43;11.18;;;;;;;31.53;53.14;101074.59;5082804;27;70138;-38
2022/01/11 05:49:23;;;;;;;12.52;11.38;;;;;;;31.55;53.41;101067.91;5080524;27;66140;-39
2022/01/11 05:51:55;;;;;;;16.48;12.05;;;;;;;31.56;53.48;101058.72;5074434;27;70099;-39
2022/01/11 05:54:30;;;;;;;14.50;12.80;;;;;;;31.59;53.63;101066.44;5075626;28;65813;-38
2022/01/11 05:57:02;;;;;;;15.35;11.90;;;;;;;31.60;53.37;101059.13;5098096;27;69836;-38
2022/01/11 05:59:36;;;;;;;13.35;11.75;;;;;;;31.60;53.50;101049.09;5085090;27;65926;-38
2022/01/11 06:02:14;;;;;;;15.02;11.90;;;;;;;31.63;53.13;101041.59;5067572;27;71030;-39
2022/01/11 06:04:56;;;;;;;14.15;12.18;;;;;;;31.55;53.31;101029.13;5081437;27;66030;-39
2022/01/11 06:07:28;;;;;;;13.32;11.85;;;;;;;31.64;53.57;101035.91;5080922;27;69588;-37
2022/01/11 06:09:59;;;;;;;17.60;11.93;;;;;;;31.63;53.34;101028.84;5078345;27;66203;-37
2022/01/11 06:12:32;;;;;;;17.52;11.88;;;;;;;31.67;53.32;101031.94;5088684;27;70837;-39
2022/01/11 06:15:04;;;;;;;16.77;12.50;;;;;;;31.62;53.50;101013.63;5086061;27;65519;-38
2022/01/11 06:17:35;;;;;;;14.00;12.53;;;;;;;31.65;53.53;101023.19;5087385;27;69346;-37
2022/01/11 06:20:08;;;;;;;12.65;11.48;;;;;;;31.69;53.64;101016.28;5093247;27;66402;-39
2022/01/11 06:22:39;;;;;;;13.13;11.82;;;;;;;31.68;53.26;101009.19;5084650;27;68260;-38
2022/01/11 06:25:10;;;;;;;13.77;11.35;;;;;;;31.69;53.38;101003.56;5083602;27;66872;-38
2022/01/11 06:27:42;;;;;;;12.13;11.07;;;;;;;31.72;53.21;100997.69;5086257;27;69919;-38
2022/01/11 06:30:18;;;;;;;15.75;11.43;;;;;;;31.76;53.34;100992.63;5089055;27;66060;-38
2022/01/11 06:32:48;;;;;;;13.38;12.05;;;;;;;31.77;53.47;100988.88;5084748;27;70457;-37
2022/01/11 06:35:24;;;;;;;13.18;11.38;;;;;;;31.78;52.93;100985.09;5087267;27;66416;-38
2022/01/11 06:37:55;;;;;;;16.90;11.88;;;;;;;31.77;53.33;100978.03;5080906;27;69819;-38
2022/01/11 06:40:25;;;;;;;13.10;12.00;;;;;;;31.78;53.31;100980.50;5098105;27;66372;-38
2022/01/11 06:42:56;;;;;;;11.80;10.75;;;;;;;31.79;53.21;100970.50;5088114;27;70152;-38
2022/01/11 06:45:28;;;;;;;15.23;11.88;;;;;;;31.77;53.08;100967.19;5087414;27;66250;-37
2022/01/11 06:48:03;;;;;;;12.40;11.30;;;;;;;31.82;53.38;100970.06;5085772;27;70191;-37
2022/01/11 06:50:47;;;;;;;12.80;11.37;;;;;;;31.76;52.89;100960.94;5089014;27;65453;-38
2022/01/11 06:53:24;;;;;;;11.90;10.73;;;;;;;31.83;52.94;100961.69;5086357;27;70522;-38
2022/01/11 06:55:55;;;;;;;12.50;10.80;;;;;;;31.85;52.81;100947.91;5086230;27;65982;-40
2022/01/11 06:58:26;;;;;;;14.35;11.00;;;;;;;31.88;52.85;100942.03;5086400;27;69989;-38
2022/01/11 07:01:00;;;;;;;14.23;10.80;;;;;;;31.90;53.14;100950.78;5084301;27;64317;-38
2022/01/11 07:03:34;;;;;;;10.82;9.95;;;;;;;31.92;52.92;100937.00;5077875;27;69743;-37
2022/01/11 07:06:25;;;;;;;11.65;10.48;;;;;;;31.89;52.79;100929.28;5093456;27;65873;-38
2022/01/11 07:09:08;;;;;;;11.73;10.73;;;;;;;31.95;52.51;100936.53;5083909;27;70129;-37
2022/01/11 07:11:51;;;;;;;11.63;10.02;;;;;;;31.94;52.34;100927.56;5087369;27;65782;-37
2022/01/11 07:14:24;;;;;;;10.43;9.43;;;;;;;31.96;52.53;100932.78;5089972;27;70553;-37
2022/01/11 07:16:55;;;;;;;11.02;10.05;;;;;;;31.96;52.54;100920.06;5089688;27;66838;-37
2022/01/11 07:19:29;;;;;;;10.90;9.75;;;;;;;31.98;52.58;100920.66;5096785;27;69406;-37
2022/01/11 07:22:08;;;;;;;14.95;9.68;;;;;;;31.98;52.43;100920.66;5082859;27;67202;-37
2022/01/11 07:24:40;;;;;;;11.80;10.30;;;;;;;32.00;52.65;100915.81;5079226;27;70508;-37
2022/01/11 07:27:12;;;;;;;12.07;10.30;;;;;;;32.01;52.33;100912.06;5079255;27;66022;-37
2022/01/11 07:29:42;;;;;;;10.57;9.52;;;;;;;31.96;52.52;100892.09;5090522;27;69932;-37
2022/01/11 07:32:18;;;;;;;10.40;9.48;;;;;;;31.98;52.60;100898.94;5085324;27;65884;-38
2022/01/11 07:34:48;;;;;;;11.60;9.65;;;;;;;32.04;52.53;100902.63;5094661;27;70558;-38
2022/01/11 07:37:19;;;;;;;9.68;8.98;;;;;;;32.08;52.55;100905.72;5082396;27;66415;-38
2022/01/11 07:39:50;;;;;;;10.88;9.80;;;;;;;32.05;52.48;100905.09;5082346;27;70259;-37
2022/01/11 07:42:23;;;;;;;10.23;9.40;;;;;;;32.12;52.55;100893.34;5080834;27;65927;-37
2022/01/11 07:45:04;;;;;;;10.20;9.23;;;;;;;32.15;51.99;100899.16;5077608;27;69652;-37
2022/01/11 07:47:35;;;;;;;10.05;9.20;;;;;;;32.16;51.99;100895.38;5078624;27;66707;-37
2022/01/11 07:50:08;;;;;;;10.63;8.90;;;;;;;32.22;52.48;100896.34;5082926;27;69846;-37
2022/01/11 07:52:39;;;;;;;10.43;9.18;;;;;;;32.25;52.28;100901.31;5075514;27;66140;-38
2022/01/11 07:55:10;;;;;;;9.15;8.27;;;;;;;32.22;52.33;100893.63;5088443;27;69257;-38
2022/01/11 07:57:40;;;;;;;9.90;9.10;;;;;;;32.31;51.92;100903.09;5090182;27;65451;-40
2022/01/11 08:00:11;;;;;;;9.15;7.97;;;;;;;32.34;51.96;100901.81;5085118;27;70103;-38
2022/01/11 08:02:44;;;;;;;15.98;8.23;;;;;;;32.33;51.90;100898.28;5085062;27;65985;-37
2022/01/11 08:05:29;;;;;;;9.20;8.25;;;;;;;32.37;52.38;100885.88;5085141;27;70452;-37
2022/01/11 08:08:00;;;;;;;10.50;7.95;;;;;;;32.39;51.73;100893.81;5083224;27;67094;-37
2022/01/11 08:10:32;;;;;;;8.73;8.03;;;;;;;32.42;52.03;100899.59;5082150;27;69940;-38
2022/01/11 08:13:06;;;;;;;8.82;8.15;;;;;;;32.46;52.04;100897.31;5079891;27;66274;-38
2022/01/11 08:15:38;;;;;;;9.35;8.50;;;;;;;32.54;51.63;100901.56;5088556;27;69359;-39
2022/01/11 08:18:08;;;;;;;;;;;;;;;32.34;52.19;100896.38;5094984;27;66590;-38
2022/01/11 08:20:42;;;;;;;8.73;7.72;;;;;;;32.56;51.76;100907.59;5088278;27;69747;-39
2022/01/11 08:23:14;;;;;;;8.70;7.40;;;;;;;32.63;51.71;100908.34;5085443;27;65661;-38
2022/01/11 08:25:45;;;;;;;8.93;7.60;;;;;;;32.63;51.73;100911.06;5064751;28;69211;-38
2022/01/11 08:28:16;;;;;;;9.65;7.90;;;;;;;32.59;51.87;100893.56;5093065;27;65926;-39
2022/01/11 08:30:57;;;;;;;8.30;7.45;;;;;;;32.72;51.63;100915.09;5087449;27;70407;-41
2022/01/11 08:33:30;;;;;;;8.82;8.02;;;;;;;32.75;51.52;100917.34;5089591;27;66371;-38
2022/01/11 08:36:02;;;;;;;9.43;7.88;;;;;;;32.74;51.41;100912.97;5087600;27;70138;-38
2022/01/11 08:38:35;;;;;;;10.15;7.82;;;;;;;32.64;51.55;100893.69;5091454;27;66185;-38
2022/01/11 08:41:09;;;;;;;7.75;7.05;;;;;;;32.84;51.59;100915.94;5083855;27;70591;-38
2022/01/11 08:43:39;;;;;;;7.90;6.90;;;;;;;32.85;51.61;100923.03;5084549;27;66125;-37
2022/01/11 08:46:12;;;;;;;8.50;7.57;;;;;;;32.83;51.48;100914.28;5081534;27;69184;-37
2022/01/11 08:49:10;;;;;;;9.82;7.78;;;;;;;32.87;51.67;100907.31;5083566;27;66353;-38
2022/01/11 08:51:41;;;;;;;9.60;7.57;;;;;;;32.97;51.41;100925.78;5091068;27;70297;-39
2022/01/11 08:54:14;;;;;;;14.32;7.75;;;;;;;32.96;51.50;100915.13;5089449;27;66242;-37
2022/01/11 08:56:47;;;;;;;8.18;7.22;;;;;;;33.03;51.13;100915.88;5089738;27;70567;-38
2022/01/11 08:59:18;;;;;;;9.10;6.87;;;;;;;33.05;51.31;100925.47;5089333;27;68248;-38
2022/01/11 09:01:50;;;;;;;7.70;7.00;;;;;;;33.10;51.19;100924.78;5084420;27;69675;-40
2022/01/11 09:04:21;;;;;;;10.75;6.85;;;;;;;33.10;51.29;100922.88;5084540;27;66020;-38
2022/01/11 09:07:07;;;;;;;7.13;6.15;;;;;;;33.15;51.32;100930.31;5082908;27;70250;-38
2022/01/11 09:09:38;;;;;;;8.10;6.97;;;;;;;33.16;51.02;100937.41;5092787;27;66384;-38
2022/01/11 09:12:13;;;;;;;6.30;5.80;;;;;;;33.19;50.85;100942.38;5087396;27;69686;-38
2022/01/11 09:14:47;;;;;;;7.00;6.32;;;;;;;33.23;50.79;100942.72;5090166;27;66278;-38
2022/01/11 09:17:20;;;;;;;7.53;5.97;;;;;;;33.20;50.94;100944.03;5087083;27;70162;-38
2022/01/11 09:19:50;;;;;;;7.20;6.35;;;;;;;33.24;50.85;100942.50;5095421;27;66257;-38
2022/01/11 09:22:22;;;;;;;8.95;5.65;;;;;;;33.21;50.93;100943.00;5087618;27;70277;-38
2022/01/11 09:24:55;;;;;;;5.97;5.47;;;;;;;33.25;50.64;100941.44;5085815;27;65466;-37
2022/01/11 09:27:32;;;;;;;6.05;5.45;;;;;;;33.11;50.57;100921.81;5085832;27;70130;-38
2022/01/11 09:30:08;;;;;;;10.23;6.35;;;;;;;33.06;50.55;100916.25;5097972;27;65728;-38
2022/01/11 09:32:43;;;;;;;7.00;5.70;;;;;;;33.05;50.38;100916.50;5084643;27;69208;-38
2022/01/11 09:35:14;;;;;;;9.60;6.20;;;;;;;33.28;50.44;100957.28;5096254;27;65695;-38
2022/01/11 09:37:49;;;;;;;6.65;5.88;;;;;;;33.29;50.33;100952.66;5083953;27;69920;-39
2022/01/11 09:40:20;;;;;;;7.13;5.75;;;;;;;33.26;50.27;100953.97;5082233;27;66416;-38
2022/01/11 09:42:58;;;;;;;10.88;6.20;;;;;;;33.30;50.18;100960.59;5077940;27;69325;-38
2022/01/11 09:45:29;;;;;;;8.20;6.03;;;;;;;33.25;50.27;100952.31;5087355;27;66161;-38
2022/01/11 09:48:03;;;;;;;13.02;5.97;;;;;;;33.30;50.26;100962.50;5086132;27;69364;-37
2022/01/11 09:50:38;;;;;;;10.07;5.85;;;;;;;33.30;50.29;100965.22;5085275;27;65860;-37
2022/01/11 09:53:11;;;;;;;6.95;6.25;;;;;;;33.27;50.17;100963.78;5084467;27;70134;-38
2022/01/11 09:55:46;;;;;;;7.55;5.85;;;;;;;33.29;50.21;100971.69;5085670;27;65827;-37
2022/01/11 09:58:19;;;;;;;8.45;6.03;;;;;;;33.27;50.32;100961.06;5085494;27;69252;-38
2022/01/11 10:00:53;;;;;;;7.22;5.93;;;;;;;33.27;50.21;100974.66;5083889;27;65787;-38
2022/01/11 10:04:05;;;;;;;8.38;6.05;;;;;;;33.18;50.00;100962.47;5081836;27;70949;-37
2022/01/11 10:06:59;;;;;;;7.68;6.05;;;;;;;33.24;49.85;100974.28;5086884;27;66165;-37
2022/01/11 10:09:32;;;;;;;7.28;6.00;;;;;;;33.03;50.00;100951.22;5086745;27;70331;-39
2022/01/11 10:12:10;;;;;;;11.85;6.32;;;;;;;33.22;49.75;100985.41;5084531;27;65963;-38
2022/01/11 10:14:50;;;;;;;10.93;6.88;;;;;;;33.17;49.63;100977.13;5088334;27;69973;-38
2022/01/11 10:17:30;;;;;;;8.68;6.10;;;;;;;33.21;49.76;100983.75;5085215;27;66534;-38
2022/01/11 10:20:20;;;;;;;8.90;6.63;;;;;;;33.17;49.74;100988.00;5080933;27;69564;-38
2022/01/11 10:23:13;;;;;;;6.57;5.65;;;;;;;33.15;49.84;100990.09;5085077;27;66100;-38
2022/01/11 10:25:52;;;;;;;9.25;5.70;;;;;;;33.15;49.81;100979.22;5083549;27;69825;-38
2022/01/11 10:28:35;;;;;;;11.48;6.03;;;;;;;33.10;49.30;100982.69;5072510;27;66087;-38
2022/01/11 10:31:09;;;;;;;9.77;6.30;;;;;;;33.09;49.90;100985.59;5084212;27;70254;-38
2022/01/11 10:34:24;;;;;;;7.50;6.35;;;;;;;33.00;49.31;100992.44;5087910;27;65841;-38
2022/01/11 10:36:55;;;;;;;9.50;5.93;;;;;;;33.06;49.92;100997.78;5094389;27;69971;-37
2022/01/11 10:39:36;;;;;;;10.93;6.72;;;;;;;33.00;49.11;100984.31;5080207;27;66768;-38
2022/01/11 10:42:25;;;;;;;10.18;6.05;;;;;;;32.99;49.49;100996.19;5079968;27;70287;-39
2022/01/11 10:45:05;;;;;;;13.10;6.25;;;;;;;33.01;49.19;100999.53;5079904;27;65889;-37
2022/01/11 10:47:41;;;;;;;8.45;6.05;;;;;;;32.78;49.45;100973.91;5065190;27;70575;-38
2022/01/11 10:50:15;;;;;;;6.40;5.78;;;;;;;32.81;49.30;100970.72;5089027;27;66644;-38
2022/01/11 10:52:48;;;;;;;10.25;6.10;;;;;;;32.92;49.40;100988.97;5084101;27;70255;-39
2022/01/11 10:55:29;;;;;;;7.90;6.07;;;;;;;32.81;49.41;100984.31;5085879;27;66308;-39
2022/01/11 10:58:12;;;;;;;22.42;6.18;;;;;;;32.92;50.21;101001.72;5089075;27;69938;-39
2022/01/11 11:00:50;;;;;;;19.48;6.22;;;;;;;32.90;49.98;100995.69;5083663;27;66326;-39
2022/01/11 11:03:23;;;;;;;20.38;7.25;;;;;;;32.70;50.49;100966.09;5068319;28;69096;-38
2022/01/11 11:06:07;;;;;;;13.75;6.25;;;;;;;32.90;50.62;101001.97;5063650;27;66139;-39
2022/01/11 11:08:44;;;;;;;18.40;6.93;;;;;;;32.89;50.72;101005.72;5085297;27;70482;-39
2022/01/11 11:11:23;;;;;;;22.95;6.18;;;;;;;32.85;50.36;101004.53;5096331;27;66016;-38
2022/01/11 11:14:12;;;;;;;23.38;7.30;;;;;;;32.87;50.87;101013.28;5092795;27;70286;-39
2022/01/11 11:16:50;;;;;;;22.73;7.65;;;;;;;32.86;51.18;101013.53;5085497;27;66044;-38
2022/01/11 11:19:23;;;;;;;13.65;7.07;;;;;;;32.86;50.61;101025.22;5095419;27;70006;-38
2022/01/11 11:22:00;;;;;;;20.27;7.13;;;;;;;32.85;51.02;101018.13;5083023;27;66224;-38
2022/01/11 11:24:30;;;;;;;20.65;7.80;;;;;;;32.72;50.87;100993.88;5089788;27;70303;-38
2022/01/11 11:27:01;;;;;;;12.15;7.07;;;;;;;32.84;51.07;101024.59;5096179;27;66960;-38
2022/01/11 11:29:31;;;;;;;19.63;7.20;;;;;;;32.82;50.83;101026.75;5088414;27;69017;-39
2022/01/11 11:32:15;;;;;;;16.27;7.43;;;;;;;32.76;51.00;101019.50;5090250;27;65562;-39
2022/01/11 11:34:50;;;;;;;18.23;7.55;;;;;;;32.76;50.71;101024.09;5088667;27;69319;-38
2022/01/11 11:37:35;;;;;;;13.30;7.00;;;;;;;32.78;50.94;101027.44;5085116;27;65097;-39
2022/01/11 11:40:10;;;;;;;15.60;7.20;;;;;;;32.55;50.23;101001.00;5084733;27;70407;-39
2022/01/11 11:42:42;;;;;;;13.05;7.47;;;;;;;32.58;48.45;101033.94;5087018;27;65744;-39
2022/01/11 11:45:23;;;;;;;15.23;6.80;;;;;;;32.42;47.28;101046.22;5079695;27;71395;-40
2022/01/11 11:48:10;;;;;;;29.65;6.45;;;;;;;32.30;47.05;101058.91;5082225;27;66042;-37
2022/01/11 11:51:14;;;;;;;24.17;8.85;;;;;;;32.07;47.39;101053.28;5083655;27;70148;-39